Map

Track Data

SID SEASON NUMBER BASIN SUBBASIN NAME ISO_TIME NATURE LAT LON WMO_WIND WMO_PRES WMO_AGENCY TRACK_TYPE DIST2LAND LANDFALL IFLAG USA_AGENCY USA_ATCF_ID USA_LAT USA_LON USA_RECORD USA_STATUS USA_WIND USA_PRES USA_SSHS USA_R34_NE USA_R34_SE USA_R34_SW USA_R34_NW USA_R50_NE USA_R50_SE USA_R50_SW USA_R50_NW USA_R64_NE USA_R64_SE USA_R64_SW USA_R64_NW USA_POCI USA_ROCI USA_RMW USA_EYE TOKYO_LAT TOKYO_LON TOKYO_GRADE TOKYO_WIND TOKYO_PRES TOKYO_R50_DIR TOKYO_R50_LONG TOKYO_R50_SHORT TOKYO_R30_DIR TOKYO_R30_LONG TOKYO_R30_SHORT TOKYO_LAND CMA_LAT CMA_LON CMA_CAT CMA_WIND CMA_PRES HKO_LAT HKO_LON HKO_CAT HKO_WIND HKO_PRES NEWDELHI_LAT NEWDELHI_LON NEWDELHI_GRADE NEWDELHI_WIND NEWDELHI_PRES NEWDELHI_CI NEWDELHI_DP NEWDELHI_POCI REUNION_LAT REUNION_LON REUNION_TYPE REUNION_WIND REUNION_PRES REUNION_TNUM REUNION_CI REUNION_RMW REUNION_R34_NE REUNION_R34_SE REUNION_R34_SW REUNION_R34_NW REUNION_R50_NE REUNION_R50_SE REUNION_R50_SW REUNION_R50_NW REUNION_R64_NE REUNION_R64_SE REUNION_R64_SW REUNION_R64_NW BOM_LAT BOM_LON BOM_TYPE BOM_WIND BOM_PRES BOM_TNUM BOM_CI BOM_RMW BOM_R34_NE BOM_R34_SE BOM_R34_SW BOM_R34_NW BOM_R50_NE BOM_R50_SE BOM_R50_SW BOM_R50_NW BOM_R64_NE BOM_R64_SE BOM_R64_SW BOM_R64_NW BOM_ROCI BOM_POCI BOM_EYE BOM_POS_METHOD BOM_PRES_METHOD NADI_LAT NADI_LON NADI_CAT NADI_WIND NADI_PRES WELLINGTON_LAT WELLINGTON_LON WELLINGTON_WIND WELLINGTON_PRES DS824_LAT DS824_LON DS824_STAGE DS824_WIND DS824_PRES TD9636_LAT TD9636_LON TD9636_STAGE TD9636_WIND TD9636_PRES TD9635_LAT TD9635_LON TD9635_WIND TD9635_PRES TD9635_ROCI NEUMANN_LAT NEUMANN_LON NEUMANN_CLASS NEUMANN_WIND NEUMANN_PRES MLC_LAT MLC_LON MLC_CLASS MLC_WIND MLC_PRES USA_GUST BOM_GUST BOM_GUST_PER REUNION_GUST REUNION_GUST_PER USA_SEAHGT USA_SEARAD_NE USA_SEARAD_SE USA_SEARAD_SW USA_SEARAD_NW STORM_SPEED STORM_DIR
1979008S14137 1979 4 SP EA GRETA 1979-01-08 11:00:00 NR -13.9000 137.200 30 1000 bom main 34 34 ______O_______ -1 -13.9000 137.200 20 30 1000 2.00000 1006 45 45 3 46
1979008S14137 1979 4 SP EA GRETA 1979-01-08 12:00:00 TS -13.8614 137.236 main 34 32 O_____P__OO_O_ jtwc_sh SH081979 -13.9000 137.200 30 -1 -13.8150 137.227 20 30 999 1006 -13.8000 137.200 TC 30 1000 -13.9000 137.200 1 30 -13.9000 137.400 TC 30 1000 4 42
1979008S14137 1979 4 SP EA GRETA 1979-01-08 15:00:00 TS -13.7020 137.385 main 55 55 P_____P__PP_P_ SH081979 -13.8000 137.390 32 -1 -13.5914 137.319 20 30 997 1006 -13.6150 137.345 TC 32 998 -13.8033 137.416 1 31 -13.6575 137.485 TC 32 998 4 47
1979008S14137 1979 4 SP EA GRETA 1979-01-08 17:00:00 TS -13.6214 137.498 30 996 bom main 68 68 P_____O__PP_P_ SH081979 -13.7333 137.527 34 0 -13.5000 137.400 20 30 996 2.50000 1006 -13.5262 137.447 TC 34 996 -13.7382 137.561 1 32 -13.5378 137.557 TC 34 996 45 45 4 59
1979008S14137 1979 4 SP EA GRETA 1979-01-08 18:00:00 TS -13.5975 137.564 main 78 78 O_____P__OP_O_ jtwc_sh SH081979 -13.7000 137.600 35 0 -13.4798 137.450 20 30 996 1006 -13.5000 137.500 TC 35 996 -13.7052 137.635 1 32 -13.5000 137.600 TC 35 996 4 74
1979008S14137 1979 4 SP EA GRETA 1979-01-08 21:00:00 TS -13.5434 137.772 main 102 102 P_____P__PP_P_ SH081979 -13.6000 137.842 35 0 -13.4861 137.640 20 30 996 1006 -13.4925 137.677 TC 35 996 -13.6045 137.862 1 33 -13.4775 137.770 TC 35 996 4 77
1979008S14137 1979 4 SP EA GRETA 1979-01-08 23:00:00 TS -13.5168 137.931 30 997 bom main 113 113 P_____O__PP_P_ SH081979 -13.5333 138.014 35 0 -13.5000 137.800 20 30 997 2.50000 1006 -13.5035 137.819 TC 35 996 -13.5353 138.019 1 34 -13.4952 137.917 TC 35 996 45 45 5 79
1979008S14137 1979 4 SP EA GRETA 1979-01-09 00:00:00 TS -13.4990 138.014 main 123 123 O_____P__OO_O_ jtwc_sh SH081979 -13.5000 138.100 35 0 -13.4943 137.883 20 30 996 1006 -13.5000 137.900 TC 35 997 -13.5000 138.100 2 35 -13.5000 138.000 TC 35 996 5 74
1979008S14137 1979 4 SP EA GRETA 1979-01-09 03:00:00 TS -13.4222 138.273 main 157 157 P_____P__PP_P_ SH081979 -13.3999 138.335 35 0 -13.4545 138.173 20 30 995 1006 -13.4150 138.170 TC 37 996 -13.3916 138.354 2 35 -13.4725 138.270 TC 37 995 6 72
1979008S14137 1979 4 SP EA GRETA 1979-01-09 05:00:00 TS -13.3593 138.469 30 995 bom main 178 178 P_____O__PP_P_ SH081979 -13.3333 138.505 35 0 -13.4000 138.400 20 30 995 2.50000 1006 -13.3385 138.383 TC 39 995 -13.3198 138.536 2 35 -13.4307 138.483 TC 39 995 45 45 6 71
1979008S14137 1979 4 SP EA GRETA 1979-01-09 06:00:00 TS -13.3235 138.576 main 192 192 O_____P__OP_O_ jtwc_sh SH081979 -13.3000 138.600 35 0 -13.3562 138.522 20 30 994 1006 -13.3000 138.500 TC 40 995 -13.2846 138.633 2 35 -13.4000 138.600 TC 40 995 7 71
1979008S14137 1979 4 SP EA GRETA 1979-01-09 09:00:00 TS -13.2013 138.928 main 226 226 P_____P__PP_P_ SH081979 -13.1924 138.920 35 0 -13.1951 138.923 20 33 994 1006 -13.1925 138.878 TC 40 994 -13.1853 138.945 2 35 -13.2500 138.985 TC 40 994 8 72
1979008S14137 1979 4 SP EA GRETA 1979-01-09 11:00:00 TS -13.1255 139.188 35 994 bom main 255 249 P_____O__PP_P_ SH081979 -13.1276 139.167 35 0 -13.1000 139.200 30 35 994 3.00000 1006 -13.1276 139.156 TC 40 994 -13.1265 139.176 2 35 -13.1438 139.261 TC 40 994 49 49 8 75
1979008S14137 1979 4 SP EA GRETA 1979-01-09 12:00:00 TS -13.0957 139.322 main 249 205 O_____P__OO_O_ jtwc_sh SH081979 -13.1000 139.300 35 0 -13.0745 139.331 30 36 993 1006 -13.1000 139.300 TC 40 994 -13.1000 139.300 2 35 -13.1000 139.400 TC 40 994 8 81
1979008S14137 1979 4 SP EA GRETA 1979-01-09 15:00:00 TS -13.0372 139.741 main 205 173 P_____P__PP_P_ SH081979 -13.0425 139.735 40 0 -13.0303 139.725 30 41 991 1006 -13.0500 139.742 TC 42 992 -13.0154 139.707 2 38 -13.0424 139.800 TC 42 992 8 83
1979008S14137 1979 4 SP EA GRETA 1979-01-09 17:00:00 TS -13.0054 140.034 45 990 bom main 173 151 P_____O__PP_P_ SH081979 -13.0140 140.045 43 0 -13.0000 140.000 30 45 990 3.00000 1006 -13.0197 140.047 TC 44 990 -12.9678 140.002 2 41 -13.0171 140.067 TC 44 990 64 64 9 83
1979008S14137 1979 4 SP EA GRETA 1979-01-09 18:00:00 TS -12.9854 140.182 main 151 109 O_____P__OP_O_ jtwc_sh SH081979 -13.0000 140.200 45 0 -12.9649 140.134 30 45 989 1006 -13.0000 140.200 TC 45 990 -12.9476 140.155 2 42 -13.0000 140.200 TC 45 990 9 80
1979008S14137 1979 4 SP EA GRETA 1979-01-09 21:00:00 TS -12.9017 140.613 main 109 76 P_____P__PP_P_ SH081979 -12.9349 140.650 47 0 -12.8497 140.563 30 48 987 1006 -12.8923 140.628 TC 47 988 -12.9060 140.626 2 46 -12.8922 140.563 TC 50 988 9 80
1979008S14137 1979 4 SP EA GRETA 1979-01-09 23:00:00 TS -12.8594 140.919 50 986 bom main 76 55 P_____O__PP_P_ SH081979 -12.9052 140.950 49 0 -12.8000 140.900 30 50 986 3.00000 1006 4 -12.8244 140.933 TC 49 986 -12.8974 140.943 2 48 -12.8244 140.838 TC 53 986 69 69 9 83
1979008S14137 1979 4 SP EA GRETA 1979-01-10 00:00:00 TS -12.8491 141.082 main 58 31 O_____P__OO_O_ jtwc_sh SH081979 -12.9000 141.100 50 0 -12.7948 141.092 30 50 986 1006 -12.8000 141.100 TC 50 986 -12.9000 141.100 2 50 -12.8000 141.000 TC 55 986 10 89
1979008S14137 1979 4 SP EA GRETA 1979-01-10 02:00:00 TS -12.8465 141.436 50 986 bom main 31 10 P_____O__PP_P_ SH081979 -12.9120 141.400 50 0 -12.8000 141.500 30 50 986 3.00000 1006 -12.7680 141.487 TC 50 986 -12.9137 141.426 2 49 -12.7735 141.405 TC 51 986 69 69 10 90
1979008S14137 1979 4 SP EA GRETA 1979-01-10 03:00:00 TS -12.8519 141.619 main 10 0 P_____P__PP_P_ SH081979 -12.9274 141.550 50 0 -12.7964 141.702 30 43 986 1006 -12.7626 141.693 TC 50 986 -12.9271 141.590 2 48 -12.7702 141.628 TC 50 986 11 93
1979008S14137 1979 4 SP EA GRETA 1979-01-10 05:00:00 TS -12.8786 141.984 30 986 bom main 0 0 P_____O__PP_P_ SH081979 -12.9723 141.850 50 0 -12.8000 142.100 20 30 986 1006 -12.7777 142.104 TC 50 986 -12.9656 141.916 2 47 -12.7834 142.082 TC 46 986 45 45 11 95
1979008S14137 1979 4 SP EA GRETA 1979-01-10 06:00:00 TS -12.9010 142.164 main 0 0 O_____P__OP_O_ jtwc_sh SH081979 -13.0000 142.000 50 0 -12.8157 142.308 20 30 986 1006 -12.8000 142.300 TC 50 986 -12.9903 142.075 2 47 -12.8000 142.300 TC 45 986 11 99
1979008S14137 1979 4 SP EA GRETA 1979-01-10 09:00:00 TS -12.9950 142.697 main 0 0 P_____P__PP_P_ SH081979 -13.0851 142.480 47 0 -12.9112 142.900 20 30 988 1006 -12.9276 142.875 TC 47 988 -13.0834 142.522 2 46 -12.8776 142.925 TC 40 988 10 102
1979008S14137 1979 4 SP EA GRETA 1979-01-10 11:00:00 TS -13.0789 142.997 30 990 bom main 0 0 P_____O__PP_P_ SH081979 -13.1584 142.773 45 0 -13.0000 143.200 20 30 990 1006 -13.0422 143.184 TC 45 989 -13.1589 142.783 2 45 -12.9558 143.268 TC 36 989 45 45 9 107
1979008S14137 1979 4 SP EA GRETA 1979-01-10 12:00:00 TS -13.1232 143.116 main 0 0 O_____P__OO_O_ jtwc_sh SH081979 -13.2000 142.900 45 0 -13.0389 143.298 20 30 990 1006 -13.1000 143.300 TC 45 990 -13.2000 142.900 2 45 -13.0000 143.400 TC 35 990 6 118
1979008S14137 1979 4 SP EA GRETA 1979-01-10 15:00:00 TS -13.2562 143.346 main 0 0 P_____P__PP_P_ SH081979 -13.3424 143.195 45 0 -13.1786 143.451 20 30 990 1006 -13.2348 143.453 TC 45 990 -13.3117 143.164 2 45 -13.1273 143.618 TC 40 990 5 127
1979008S14137 1979 4 SP EA GRETA 1979-01-10 17:00:00 TS -13.3613 143.439 30 990 bom main 0 0 P_____O__PP_P_ SH081979 -13.4473 143.339 45 0 -13.3000 143.500 20 30 990 1006 -13.3385 143.482 TC 45 990 -13.3990 143.300 2 45 -13.2359 143.677 TC 43 990 45 45 4 141
1979008S14137 1979 4 SP EA GRETA 1979-01-10 18:00:00 TS -13.4189 143.483 main 0 0 O_____P__OP_O_ jtwc_sh SH081979 -13.5000 143.400 45 0 -13.3667 143.536 20 30 990 1006 -13.4000 143.500 TC 45 990 -13.4469 143.360 2 45 -13.3000 143.700 TC 45 990 4 144
1979008S14137 1979 4 SP EA GRETA 1979-01-10 21:00:00 TS -13.6042 143.615 main 10 10 P_____P__PP_P_ SH081979 -13.6349 143.550 45 0 -13.6066 143.631 20 30 990 1006 -13.6200 143.635 TC 45 990 -13.6086 143.527 2 45 -13.5200 143.800 TC 45 990 5 147
1979008S14137 1979 4 SP EA GRETA 1979-01-10 23:00:00 TS -13.7516 143.705 30 990 bom main 15 15 P_____O__PP_P_ SH081979 -13.7385 143.644 45 0 -13.8000 143.700 20 30 990 1006 -13.8000 143.742 TC 45 990 -13.7328 143.639 2 45 -13.7000 143.864 TC 45 990 45 45 5 151
1979008S14137 1979 4 SP EA GRETA 1979-01-11 00:00:00 TS -13.8361 143.753 main 24 10 O_____P__OO_O_ jtwc_sh SH081979 -13.8000 143.700 45 0 -13.9164 143.720 20 30 990 1006 -13.9000 143.800 TC 45 990 -13.8000 143.700 2 45 -13.8000 143.900 TC 45 990 7 148
1979008S14137 1979 4 SP EA GRETA 1979-01-11 03:00:00 TS -14.1372 143.949 main 21 11 P_____P__PP_P_ SH081979 -14.0350 143.935 45 0 -14.2894 143.820 20 30 991 1006 -14.2650 143.985 TC 45 991 -14.0337 144.004 2 43 -14.1649 144.013 TC 45 991 7 145
1979008S14137 1979 4 SP EA GRETA 1979-01-11 05:00:00 TS -14.3383 144.114 30 992 bom main 11 0 P_____O__PP_P_ SH081979 -14.2114 144.111 45 0 -14.5000 144.000 20 30 992 1006 -14.5009 144.125 TC 45 991 -14.2050 144.212 2 42 -14.4009 144.125 TC 45 991 45 45 8 139
1979008S14137 1979 4 SP EA GRETA 1979-01-11 06:00:00 TS -14.4289 144.213 main 0 0 O_____P__OP_O_ jtwc_sh SH081979 -14.3000 144.200 45 0 -14.5806 144.167 20 30 991 1006 -14.6000 144.200 TC 45 992 -14.2928 144.312 2 42 -14.5000 144.200 TC 45 992 8 128
1979008S14137 1979 4 SP EA GRETA 1979-01-11 08:00:00 TS -14.5803 144.433 30 990 bom main 0 0 P_____O__PP_P_ SH081979 -14.4776 144.394 43 0 -14.7000 144.500 20 30 990 1006 -14.7317 144.386 TC 45 992 -14.4689 144.489 2 41 -14.6263 144.434 TC 43 992 45 45 8 125
1979008S14137 1979 4 SP EA GRETA 1979-01-11 09:00:00 TS -14.6457 144.530 main 0 0 P_____P__PP_P_ SH081979 -14.5650 144.487 42 0 -14.7358 144.596 20 30 990 -14.7801 144.480 TC 45 992 -14.5555 144.563 2 41 -14.6727 144.565 TC 42 992 6 127
1979008S14137 1979 4 SP EA GRETA 1979-01-11 11:00:00 TS -14.7656 144.685 30 992 bom main 0 0 P_____O__PP_P_ SH081979 -14.7281 144.645 40 0 -14.8000 144.700 80 30 992 -14.8605 144.643 TC 45 992 -14.7218 144.671 2 40 -14.7549 144.807 TC 40 992 45 45 5 131
1979008S14137 1979 4 SP EA GRETA 1979-01-11 12:00:00 TS -14.8265 144.741 main 0 0 O_____P__OO_O_ jtwc_sh SH081979 -14.8000 144.700 40 0 -14.8588 144.747 80 28 992 -14.9000 144.700 TC 45 992 -14.8000 144.700 2 40 -14.8000 144.900 TC 40 992 4 144
1979008S14137 1979 4 SP EA GRETA 1979-01-11 14:00:00 TS -14.9442 144.823 25 992 bom main 0 0 P_____O__PP_P_ SH081979 -14.9103 144.778 40 0 -15.0000 144.800 50 25 992 -14.9944 144.794 TC 43 992 -14.9195 144.766 2 39 -14.9307 145.024 TC 38 992 45 45 4 152
1979008S14137 1979 4 SP EA GRETA 1979-01-11 15:00:00 TS -15.0006 144.842 main 0 0 P_____P__PP_P_ SH081979 -14.9574 144.790 40 0 -15.0721 144.824 50 25 992 -15.0423 144.812 TC 42 993 -14.9744 144.780 2 38 -14.9998 145.055 TC 37 993 3 189
1979008S14137 1979 4 SP EA GRETA 1979-01-11 17:00:00 TS -15.1098 144.814 25 994 bom main 0 0 P_____O__PP_P_ SH081979 -15.0495 144.753 40 0 -15.2000 144.800 50 25 994 -15.1441 144.770 TC 40 993 -15.0796 144.760 2 37 -15.1363 145.045 TC 35 993 45 45 4 208
1979008S14137 1979 4 SP EA GRETA 1979-01-11 18:00:00 TS -15.1613 144.760 main 0 0 O_____P__OP_O_ jtwc_sh SH081979 -15.1000 144.700 40 0 -15.2358 144.735 50 25 994 -15.2000 144.700 TC 40 994 -15.1318 144.723 2 37 -15.2000 145.000 TC 35 994 5 233
1979008S14137 1979 4 SP EA GRETA 1979-01-11 20:00:00 TS -15.2624 144.606 25 996 bom main 0 0 P_____O__PP_P_ SH081979 -15.2141 144.587 38 0 -15.3000 144.500 50 25 996 -15.3143 144.489 TC 38 995 -15.2403 144.584 2 36 -15.2912 144.889 TC 33 994 45 45 6 239
1979008S14137 1979 4 SP EA GRETA 1979-01-11 21:00:00 TS -15.3198 144.492 main 0 0 P_____P__PP_P_ SH081979 -15.2769 144.492 37 0 -15.3547 144.362 50 25 996 -15.3772 144.335 TC 37 995 -15.2985 144.479 2 36 -15.3345 144.792 TC 32 995 9 245
1979008S14137 1979 4 SP EA GRETA 1979-01-11 23:00:00 TS -15.4532 144.172 25 997 bom main 0 0 P_____O__PP_P_ SH081979 -15.4189 144.203 35 0 -15.5000 144.000 50 25 997 -15.5191 143.938 TC 35 996 -15.4274 144.189 2 35 -15.4351 144.500 TC 30 995 45 45 11 247
1979008S14137 1979 4 SP EA GRETA 1979-01-12 00:00:00 TS -15.5309 143.965 main 0 0 O_____P__OO_O_ jtwc_sh SH081979 -15.5000 144.000 35 0 -15.5851 143.791 50 25 996 -15.6000 143.700 TC 35 997 -15.5000 144.000 2 35 -15.5000 144.300 TC 30 996 16 250
1979008S14137 1979 4 SP EA GRETA 1979-01-12 03:00:00 TS -15.8178 143.130 main 0 0 P_____P__PP_P_ SH081979 -15.7853 143.155 35 0 -15.8877 142.990 50 25 996 -15.8850 142.882 TC 35 996 -15.7863 143.078 2 -15.7774 143.520 TC 30 996 19 251
1979008S14137 1979 4 SP EA GRETA 1979-01-12 05:00:00 TS -16.0285 142.442 25 996 bom main 0 0 P_____O__PP_P_ SH081979 -15.9948 142.460 35 0 -16.1000 142.300 50 25 996 -16.0946 142.238 TC 35 996 -15.9950 142.336 2 -15.9920 142.857 TC 30 996 45 45 21 253
1979008S14137 1979 4 SP EA GRETA 1979-01-12 06:00:00 TS -16.1335 142.076 main 0 0 O_____P__OP_O_ jtwc_sh SH081979 -16.1000 142.100 35 0 -16.2000 141.906 50 25 996 -16.2000 141.900 TC 35 996 -16.1012 141.952 2 -16.1000 142.500 TC 30 996 23 254
1979008S14137 1979 4 SP EA GRETA 1979-01-12 07:00:00 TS -16.2371 141.689 25 996 bom main 0 0 P_____O__PP_P_ SH081979 -16.2057 141.720 34 0 -16.3000 141.500 50 25 996 -16.3031 141.523 TC 35 996 -16.2072 141.571 2 -16.2006 142.103 TC 30 996 45 45 23 255
1979008S14137 1979 4 SP EA GRETA 1979-01-12 09:00:00 TS -16.4428 140.908 main 42 42 P_____P__PP_P_ SH081979 -16.4160 140.946 32 -1 -16.5001 140.695 50 25 996 -16.5087 140.746 TC 35 996 -16.4145 140.850 2 -16.4014 141.268 TC 32 996 22 254
1979008S14137 1979 4 SP EA GRETA 1979-01-12 11:00:00 TS -16.6400 140.223 25 997 bom main 96 91 P_____O__PP_P_ SH081979 -16.6119 140.264 30 -1 -16.7000 140.000 50 25 997 -16.7063 140.061 TC 35 996 -16.6093 140.241 2 -16.6007 140.505 TC 34 996 45 45 19 252
1979008S14137 1979 4 SP EA GRETA 1979-01-12 12:00:00 TS -16.7333 139.950 main 81 44 O_____P__OO_O_ jtwc_sh SH081979 -16.7000 140.000 30 -1 -16.7999 139.698 50 25 996 -16.8000 139.800 TC 35 997 -16.7000 140.000 1 -16.7000 140.200 TC 35 997 13 246
1979008S14137 1979 4 SP EA GRETA 1979-01-12 14:00:00 TS -16.9112 139.588 25 996 bom main 44 31 P_____O__PP_P_ SH081979 -16.8482 139.652 30 -1 -17.0000 139.300 50 25 996 -16.9845 139.483 TC 35 996 -16.8657 139.671 1 -16.9207 139.769 TC 35 996 45 45 10 239
1979008S14137 1979 4 SP EA GRETA 1979-01-12 15:00:00 TS -16.9962 139.492 main 31 21 P_____P__PP_P_ SH081979 -16.9141 139.555 30 -1 -17.1070 139.229 50 25 996 -17.0715 139.405 TC 35 996 -16.9415 139.576 1 -17.0289 139.632 TC 35 996 6 211
1979008S14137 1979 4 SP EA GRETA 1979-01-12 17:00:00 TS -17.1518 139.440 25 996 bom main 21 21 P_____O__PP_P_ SH081979 -17.0382 139.484 30 -1 -17.3000 139.300 50 25 996 -17.2303 139.371 TC 35 996 -17.0819 139.502 1 -17.2224 139.500 TC 35 996 45 45 4 0
1979008S14137 1979 4 SP EA GRETA 1979-01-12 18:00:00 TS -17.2175 139.468 main 22 11 O_____P__OP_O_ jtwc_sh SH081979 -17.1000 139.500 30 -1 -17.3578 139.396 50 25 996 -17.3000 139.400 TC 35 996 -17.1473 139.514 1 -17.3000 139.500 TC 35 996 5 130
1979008S14137 1979 4 SP EA GRETA 1979-01-12 21:00:00 TS -17.3807 139.727 main 15 15 P_____P__PP_P_ SH081979 -17.2955 139.690 30 -1 -17.4392 139.833 50 25 996 -17.4680 139.603 TC 35 996 -17.3297 139.696 1 -17.4227 139.792 TC 35 996 6 120
1979008S14137 1979 4 SP EA GRETA 1979-01-12 23:00:00 TS -17.4760 139.942 25 997 bom main 15 15 P_____O__PP_P_ SH081979 -17.4314 139.891 30 -1 -17.5000 140.000 50 25 997 -17.5578 139.796 TC 35 996 -17.4439 139.893 1 -17.4715 140.034 TC 35 996 45 45 6 119
1979008S14137 1979 4 SP EA GRETA 1979-01-13 00:00:00 TS -17.5309 140.018 main 22 10 O_____P__OO_O_ jtwc_sh SH081979 -17.5000 140.000 30 -1 -17.5676 139.980 50 25 997 -17.6000 139.900 TC 35 997 -17.5000 140.000 1 30 -17.5000 140.100 TC 35 996 3 0
1979008S14137 1979 4 SP EA GRETA 1979-01-13 02:00:00 TS -17.6402 139.925 25 997 bom main 10 0 ______O_____P_ SH081979 -1 -17.7000 139.800 50 25 997 TC 1 -17.5803 140.051 TC 36 995 45 45 5 234
1979008S14137 1979 4 SP EA GRETA 1979-01-13 03:00:00 TS -17.6930 139.787 main 0 0 ______P_____P_ SH081979 -1 -17.7401 139.662 50 25 996 TC 1 -17.6302 139.953 TC 37 995 10 254
1979008S14137 1979 4 SP EA GRETA 1979-01-13 05:00:00 TS -17.7805 139.422 25 995 bom main 0 0 ______O_____P_ SH081979 -1 -17.8000 139.300 50 25 995 TC 1 -17.7415 139.666 TC 39 995 45 45 12 256
1979008S14137 1979 4 SP EA GRETA 1979-01-13 06:00:00 TS -17.8354 139.192 main 0 0 ______P_____O_ -1 -17.8442 139.115 50 1 -17.8000 139.500 TC 40 995 14 255
1979008S14137 1979 4 SP EA GRETA 1979-01-13 09:00:00 NR -18.0165 138.499 main 0 0 ______P_______ -1 -18.0165 138.499 50 1 TC 14 253
1979008S14137 1979 4 SP EA GRETA 1979-01-13 12:00:00 NR -18.2388 137.813 main 0 0 ______P_______ -1 -18.2388 137.813 50 14 250
1979008S14137 1979 4 SP EA GRETA 1979-01-13 15:00:00 NR -18.4995 137.089 main 0 0 ______P_______ -1 -18.4995 137.089 50 15 248
1979008S14137 1979 4 SP EA GRETA 1979-01-13 18:00:00 NR -18.7870 136.357 main 0 0 ______P_______ -1 -18.7870 136.357 50 15 247
1979008S14137 1979 4 SP EA GRETA 1979-01-13 21:00:00 NR -19.0907 135.650 main 0 0 ______P_______ -1 -19.0907 135.650 50 14 244
1979008S14137 1979 4 SP EA GRETA 1979-01-14 00:00:00 NR -19.4000 135.000 25 996 bom main 0 0 ______O_______ -1 -19.4000 135.000 50 25 996 45 45 13 243
1979008S14137 1979 4 SI WA GRETA 1979-01-14 03:00:00 NR -19.6889 134.424 main 0 0 ______P_______ -1 -19.6889 134.424 50 12 240
1979008S14137 1979 4 SI WA GRETA 1979-01-14 06:00:00 NR -19.9894 133.894 main 0 0 ______P_______ -1 -19.9894 133.894 50 11 237
1979008S14137 1979 4 SI WA GRETA 1979-01-14 09:00:00 NR -20.2971 133.415 main 0 0 ______P_______ -1 -20.2971 133.415 50 10 234
1979008S14137 1979 4 SI WA GRETA 1979-01-14 12:00:00 NR -20.6080 132.994 main 0 0 ______P_______ -1 -20.6080 132.994 50 10 230
1979008S14137 1979 4 SI WA GRETA 1979-01-14 15:00:00 NR -20.9180 132.635 main 0 0 ______P_______ -1 -20.9180 132.635 50 9 225
1979008S14137 1979 4 SI WA GRETA 1979-01-14 18:00:00 NR -21.2228 132.346 main 0 0 ______P_______ -1 -21.2228 132.346 50 8 218
1979008S14137 1979 4 SI WA GRETA 1979-01-14 21:00:00 NR -21.5182 132.132 main 0 0 ______P_______ -1 -21.5182 132.132 50 7 209
1979008S14137 1979 4 SI WA GRETA 1979-01-15 00:00:00 NR -21.8000 132.000 25 996 bom main 0 0 ______O_______ -1 -21.8000 132.000 50 25 996 45 45 6 195
1979008S14137 1979 4 SI WA GRETA 1979-01-15 03:00:00 NR -22.0818 131.965 main 0 0 ______P_______ -1 -22.0818 131.965 50 6 179
1979008S14137 1979 4 SI WA GRETA 1979-01-15 06:00:00 NR -22.3553 132.021 main 0 0 ______P_______ -1 -22.3553 132.021 50 6 162
1979008S14137 1979 4 SI WA GRETA 1979-01-15 09:00:00 NR -22.6165 132.150 main 0 0 ______P_______ -1 -22.6165 132.150 50 6 151
1979008S14137 1979 4 SI WA GRETA 1979-01-15 12:00:00 NR -22.8615 132.331 main 0 0 ______P_______ -1 -22.8615 132.331 50 6 142
1979008S14137 1979 4 SI WA GRETA 1979-01-15 15:00:00 NR -23.0863 132.547 main 0 0 ______P_______ -1 -23.0863 132.547 50 6 136
1979008S14137 1979 4 SI WA GRETA 1979-01-15 18:00:00 NR -23.2868 132.776 main 0 0 ______P_______ -1 -23.2868 132.776 50 6 132
1979008S14137 1979 4 SI WA GRETA 1979-01-15 21:00:00 NR -23.4593 133.001 main 0 0 ______P_______ -1 -23.4593 133.001 50 5 129
1979008S14137 1979 4 SI WA GRETA 1979-01-16 00:00:00 NR -23.6000 133.200 25 995 bom main 0 0 ______O_______ -1 -23.6000 133.200 50 25 995 45 45 4 127
1979008S14137 1979 4 SI WA GRETA 1979-01-16 03:00:00 NR -23.7089 133.361 main 0 0 ______P_______ -1 -23.7089 133.361 50 27 993 3 126
1979008S14137 1979 4 SI WA GRETA 1979-01-16 06:00:00 NR -23.8000 133.500 30 992 bom main 0 ______O_______ -1 -23.8000 133.500 50 30 992 45 45 3 126

Digital Typhoon Data and Search

About IBTrACS Database

This database is a web-friendly format of International Best Track Archive for Climate Stewardship (IBTrACS), a global best track data archive curated by NOAA dating back to 1842.

Updated: 2021-11-26